sensor_id;sensor_type;location;lat;lon;timestamp;P1;durP1;ratioP1;P2;durP2;ratioP2
22521;SDS011;11427;51.062;17.044;2022-11-20T00:07:05;61.47;;;31.33;;
22521;SDS011;11427;51.062;17.044;2022-11-20T00:22:07;75.43;;;37.50;;
22521;SDS011;11427;51.062;17.044;2022-11-20T00:37:09;75.03;;;36.78;;
22521;SDS011;11427;51.062;17.044;2022-11-20T00:52:11;61.42;;;30.88;;
22521;SDS011;11427;51.062;17.044;2022-11-20T01:07:13;65.78;;;30.83;;
22521;SDS011;11427;51.062;17.044;2022-11-20T01:22:14;65.85;;;31.15;;
22521;SDS011;11427;51.062;17.044;2022-11-20T01:37:16;68.45;;;35.20;;
22521;SDS011;11427;51.062;17.044;2022-11-20T01:52:32;56.13;;;27.70;;
22521;SDS011;11427;51.062;17.044;2022-11-20T02:07:39;52.72;;;26.35;;
22521;SDS011;11427;51.062;17.044;2022-11-20T02:22:48;44.67;;;24.75;;
22521;SDS011;11427;51.062;17.044;2022-11-20T02:37:57;48.88;;;24.77;;
22521;SDS011;11427;51.062;17.044;2022-11-20T02:53:01;45.97;;;24.35;;
22521;SDS011;11427;51.062;17.044;2022-11-20T03:08:03;40.92;;;21.75;;
22521;SDS011;11427;51.062;17.044;2022-11-20T03:23:05;43.22;;;23.15;;
22521;SDS011;11427;51.062;17.044;2022-11-20T03:38:07;42.70;;;23.15;;
22521;SDS011;11427;51.062;17.044;2022-11-20T03:53:09;52.88;;;27.85;;
22521;SDS011;11427;51.062;17.044;2022-11-20T04:08:11;69.55;;;34.47;;
22521;SDS011;11427;51.062;17.044;2022-11-20T04:23:13;60.50;;;31.52;;
22521;SDS011;11427;51.062;17.044;2022-11-20T04:38:15;62.00;;;29.80;;
22521;SDS011;11427;51.062;17.044;2022-11-20T04:53:17;58.13;;;29.77;;
22521;SDS011;11427;51.062;17.044;2022-11-20T05:08:20;71.85;;;37.33;;
22521;SDS011;11427;51.062;17.044;2022-11-20T05:23:21;65.65;;;34.40;;
22521;SDS011;11427;51.062;17.044;2022-11-20T05:38:23;57.60;;;29.15;;
22521;SDS011;11427;51.062;17.044;2022-11-20T05:53:25;57.80;;;29.05;;
22521;SDS011;11427;51.062;17.044;2022-11-20T06:08:28;60.28;;;31.63;;
22521;SDS011;11427;51.062;17.044;2022-11-20T06:23:31;77.45;;;37.60;;
22521;SDS011;11427;51.062;17.044;2022-11-20T06:38:34;80.53;;;39.67;;
22521;SDS011;11427;51.062;17.044;2022-11-20T06:53:36;81.55;;;40.00;;
22521;SDS011;11427;51.062;17.044;2022-11-20T07:08:38;94.30;;;47.92;;
22521;SDS011;11427;51.062;17.044;2022-11-20T07:23:40;72.85;;;37.20;;
22521;SDS011;11427;51.062;17.044;2022-11-20T07:38:42;66.88;;;32.55;;
22521;SDS011;11427;51.062;17.044;2022-11-20T07:53:44;58.97;;;31.88;;
22521;SDS011;11427;51.062;17.044;2022-11-20T08:08:45;60.60;;;30.73;;
22521;SDS011;11427;51.062;17.044;2022-11-20T08:23:47;52.95;;;29.08;;
22521;SDS011;11427;51.062;17.044;2022-11-20T08:38:50;46.28;;;26.75;;
22521;SDS011;11427;51.062;17.044;2022-11-20T08:53:54;46.38;;;26.02;;
22521;SDS011;11427;51.062;17.044;2022-11-20T09:08:56;40.28;;;23.67;;
22521;SDS011;11427;51.062;17.044;2022-11-20T09:24:04;40.33;;;23.17;;
22521;SDS011;11427;51.062;17.044;2022-11-20T09:39:06;34.38;;;21.65;;
22521;SDS011;11427;51.062;17.044;2022-11-20T16:06:55;63.63;;;35.33;;
22521;SDS011;11427;51.062;17.044;2022-11-20T16:21:57;56.65;;;30.95;;
22521;SDS011;11427;51.062;17.044;2022-11-20T16:37:03;58.78;;;35.28;;
22521;SDS011;11427;51.062;17.044;2022-11-20T16:52:05;69.50;;;36.25;;
22521;SDS011;11427;51.062;17.044;2022-11-20T17:07:08;77.10;;;40.72;;
22521;SDS011;11427;51.062;17.044;2022-11-20T17:22:10;68.97;;;35.78;;
22521;SDS011;11427;51.062;17.044;2022-11-20T17:37:11;55.60;;;28.95;;
22521;SDS011;11427;51.062;17.044;2022-11-20T17:52:13;50.53;;;27.95;;
22521;SDS011;11427;51.062;17.044;2022-11-20T18:07:15;52.40;;;27.55;;
22521;SDS011;11427;51.062;17.044;2022-11-20T18:22:18;62.75;;;31.50;;
22521;SDS011;11427;51.062;17.044;2022-11-20T18:37:20;56.25;;;28.38;;
22521;SDS011;11427;51.062;17.044;2022-11-20T18:52:23;48.92;;;27.08;;
22521;SDS011;11427;51.062;17.044;2022-11-20T19:07:29;54.83;;;29.53;;
22521;SDS011;11427;51.062;17.044;2022-11-20T19:22:31;57.72;;;31.60;;
22521;SDS011;11427;51.062;17.044;2022-11-20T19:37:33;54.28;;;29.88;;
22521;SDS011;11427;51.062;17.044;2022-11-20T19:52:36;56.53;;;31.20;;
22521;SDS011;11427;51.062;17.044;2022-11-20T20:07:37;75.65;;;38.00;;
22521;SDS011;11427;51.062;17.044;2022-11-20T20:22:40;104.45;;;48.40;;
22521;SDS011;11427;51.062;17.044;2022-11-20T20:37:42;90.97;;;47.58;;
22521;SDS011;11427;51.062;17.044;2022-11-20T20:52:44;98.18;;;45.40;;
22521;SDS011;11427;51.062;17.044;2022-11-20T21:07:46;88.13;;;43.63;;
22521;SDS011;11427;51.062;17.044;2022-11-20T21:23:08;87.93;;;42.65;;
22521;SDS011;11427;51.062;17.044;2022-11-20T21:38:11;85.30;;;43.33;;
22521;SDS011;11427;51.062;17.044;2022-11-20T21:53:13;86.43;;;42.45;;
22521;SDS011;11427;51.062;17.044;2022-11-20T22:08:15;82.93;;;40.72;;
22521;SDS011;11427;51.062;17.044;2022-11-20T22:23:16;83.90;;;40.47;;
22521;SDS011;11427;51.062;17.044;2022-11-20T22:38:18;91.55;;;42.42;;
22521;SDS011;11427;51.062;17.044;2022-11-20T22:53:20;88.85;;;43.40;;
22521;SDS011;11427;51.062;17.044;2022-11-20T23:08:22;104.82;;;49.92;;
22521;SDS011;11427;51.062;17.044;2022-11-20T23:23:24;93.13;;;44.10;;
22521;SDS011;11427;51.062;17.044;2022-11-20T23:38:26;91.85;;;46.65;;
22521;SDS011;11427;51.062;17.044;2022-11-20T23:53:28;98.78;;;46.88;;
